Saltar para o conteúdo principal

Vila Verde (CIM)

ID 6212123 · 41.6469, -8.4340 mapa

Última leitura · 2026-05-09 18:00 (Europe/Lisbon)

Temperatura
14.4 °C
Humidade
91 %
Pressão
1,005.7 hPa
Precipitação
Radiação
Velocidade do vento
2.9 km/h
Direcção do vento
SE · Sudeste

Histórico de 24 horas

Hora (Europe/Lisbon) Temperatura Humidade Pressão Chuva Vento Direcção
2026-05-09 18:00 14.4 °C 91 % 1,005.7 2.9 km/h SE
2026-05-09 17:00 13.4 °C 91 % 1,005.9 2.9 km/h NE
2026-05-09 16:00 14.4 °C 87 % 1,005.2 1.8 km/h NE
2026-05-09 15:00 17.6 °C 80 % 1,004.1 5.8 km/h SE
2026-05-09 14:00 16.2 °C 88 % 1,004.5 2.2 km/h S
2026-05-09 13:00 14.5 °C 91 % 1,005.0 4.7 km/h SW
2026-05-09 12:00 15.9 °C 81 % 1,004.8 3.6 km/h S
2026-05-09 11:00 17.4 °C 67 % 1,004.4 4.7 km/h E
2026-05-09 10:00 16.7 °C 73 % 1,004.5 3.2 km/h E
2026-05-09 09:00 14.1 °C 85 % 1,004.8 3.2 km/h NE
2026-05-09 08:00 11.5 °C 91 % 1,005.0 2.5 km/h W
2026-05-09 07:00 10.8 °C 91 % 1,005.0 1.1 km/h W
2026-05-09 06:00 11.4 °C 91 % 1,005.2 1.4 km/h NW
2026-05-09 05:00 12.3 °C 91 % 1,005.4 2.2 km/h W
2026-05-09 04:00 12.5 °C 91 % 1,005.7 1.8 km/h W
2026-05-09 03:00 13.0 °C 90 % 1,006.0 3.6 km/h W
2026-05-09 02:00 14.6 °C 75 % 1,006.5 5.0 km/h S
2026-05-09 01:00 13.9 °C 78 % 1,006.1 2.2 km/h E
2026-05-09 00:00 13.5 °C 79 % 1,006.6 1.4 km/h S
2026-05-08 23:00 13.2 °C 80 % 1,007.4 2.2 km/h N
2026-05-08 22:00 14.3 °C 79 % 1,007.7 5.8 km/h NE
2026-05-08 21:00 15.2 °C 74 % 1,007.7 5.0 km/h NE
2026-05-08 20:00 17.4 °C 61 % 1,007.9 2.2 km/h NE
2026-05-08 19:00 19.1 °C 41 % 1,008.2 1.8 km/h S